sensor_id;sensor_type;location;lat;lon;timestamp;P1;durP1;ratioP1;P2;durP2;ratioP2
61015;SDS011;46902;52.920;6.536;2023-05-07T00:02:02;12.27;;;8.25;;
61015;SDS011;46902;52.920;6.536;2023-05-07T00:04:28;12.80;;;8.43;;
61015;SDS011;46902;52.920;6.536;2023-05-07T00:07:01;11.65;;;9.00;;
61015;SDS011;46902;52.920;6.536;2023-05-07T00:09:26;10.27;;;8.43;;
61015;SDS011;46902;52.920;6.536;2023-05-07T00:11:52;12.52;;;8.63;;
61015;SDS011;46902;52.920;6.536;2023-05-07T00:14:18;11.50;;;8.75;;
61015;SDS011;46902;52.920;6.536;2023-05-07T00:16:43;11.52;;;9.25;;
61015;SDS011;46902;52.920;6.536;2023-05-07T00:19:09;12.18;;;9.60;;
61015;SDS011;46902;52.920;6.536;2023-05-07T00:21:34;11.10;;;9.48;;
61015;SDS011;46902;52.920;6.536;2023-05-07T00:24:00;14.65;;;10.40;;
61015;SDS011;46902;52.920;6.536;2023-05-07T00:26:26;16.15;;;11.15;;
61015;SDS011;46902;52.920;6.536;2023-05-07T00:28:52;12.32;;;10.32;;
61015;SDS011;46902;52.920;6.536;2023-05-07T00:31:17;11.88;;;9.73;;
61015;SDS011;46902;52.920;6.536;2023-05-07T00:33:43;13.25;;;11.75;;
61015;SDS011;46902;52.920;6.536;2023-05-07T00:36:08;19.85;;;12.25;;
61015;SDS011;46902;52.920;6.536;2023-05-07T00:38:34;17.15;;;12.32;;
61015;SDS011;46902;52.920;6.536;2023-05-07T00:41:00;15.60;;;12.52;;
61015;SDS011;46902;52.920;6.536;2023-05-07T00:43:27;15.40;;;12.77;;
61015;SDS011;46902;52.920;6.536;2023-05-07T00:45:52;16.27;;;12.65;;
61015;SDS011;46902;52.920;6.536;2023-05-07T00:48:18;15.98;;;13.43;;
61015;SDS011;46902;52.920;6.536;2023-05-07T00:50:45;15.98;;;13.75;;
61015;SDS011;46902;52.920;6.536;2023-05-07T00:53:12;19.33;;;14.27;;
61015;SDS011;46902;52.920;6.536;2023-05-07T00:55:38;17.00;;;13.75;;
61015;SDS011;46902;52.920;6.536;2023-05-07T00:58:04;17.38;;;13.48;;
61015;SDS011;46902;52.920;6.536;2023-05-07T01:00:30;18.60;;;14.25;;
61015;SDS011;46902;52.920;6.536;2023-05-07T01:02:56;20.25;;;14.25;;
61015;SDS011;46902;52.920;6.536;2023-05-07T01:05:23;22.00;;;14.70;;
61015;SDS011;46902;52.920;6.536;2023-05-07T01:07:50;17.55;;;13.93;;
61015;SDS011;46902;52.920;6.536;2023-05-07T01:10:18;19.98;;;15.20;;
61015;SDS011;46902;52.920;6.536;2023-05-07T01:12:44;17.75;;;14.95;;
61015;SDS011;46902;52.920;6.536;2023-05-07T01:15:12;18.63;;;15.15;;
61015;SDS011;46902;52.920;6.536;2023-05-07T01:17:38;19.48;;;15.05;;
61015;SDS011;46902;52.920;6.536;2023-05-07T01:20:06;18.95;;;15.65;;
61015;SDS011;46902;52.920;6.536;2023-05-07T01:22:33;17.38;;;15.55;;
61015;SDS011;46902;52.920;6.536;2023-05-07T01:25:01;19.30;;;16.05;;
61015;SDS011;46902;52.920;6.536;2023-05-07T01:27:27;17.75;;;15.18;;
61015;SDS011;46902;52.920;6.536;2023-05-07T01:29:53;21.58;;;16.35;;
61015;SDS011;46902;52.920;6.536;2023-05-07T01:32:21;19.10;;;16.00;;
61015;SDS011;46902;52.920;6.536;2023-05-07T01:35:11;18.48;;;16.40;;
61015;SDS011;46902;52.920;6.536;2023-05-07T01:37:39;21.35;;;15.77;;
61015;SDS011;46902;52.920;6.536;2023-05-07T01:40:05;18.58;;;15.65;;
61015;SDS011;46902;52.920;6.536;2023-05-07T01:42:32;18.10;;;16.13;;
61015;SDS011;46902;52.920;6.536;2023-05-07T01:44:58;22.25;;;16.77;;
61015;SDS011;46902;52.920;6.536;2023-05-07T01:47:24;20.17;;;17.08;;
61015;SDS011;46902;52.920;6.536;2023-05-07T01:49:50;20.73;;;16.50;;
61015;SDS011;46902;52.920;6.536;2023-05-07T01:52:17;21.08;;;17.08;;
61015;SDS011;46902;52.920;6.536;2023-05-07T01:54:43;21.83;;;17.95;;
61015;SDS011;46902;52.920;6.536;2023-05-07T01:57:09;20.40;;;17.30;;
61015;SDS011;46902;52.920;6.536;2023-05-07T01:59:35;21.92;;;17.95;;
61015;SDS011;46902;52.920;6.536;2023-05-07T02:02:00;21.88;;;18.55;;
61015;SDS011;46902;52.920;6.536;2023-05-07T02:04:26;21.23;;;18.58;;
61015;SDS011;46902;52.920;6.536;2023-05-07T02:06:51;23.77;;;18.10;;
61015;SDS011;46902;52.920;6.536;2023-05-07T02:09:17;19.75;;;17.05;;
61015;SDS011;46902;52.920;6.536;2023-05-07T02:11:43;20.50;;;17.88;;
61015;SDS011;46902;52.920;6.536;2023-05-07T02:14:09;20.30;;;17.52;;
61015;SDS011;46902;52.920;6.536;2023-05-07T02:16:35;22.65;;;18.40;;
61015;SDS011;46902;52.920;6.536;2023-05-07T02:19:01;20.17;;;17.98;;
61015;SDS011;46902;52.920;6.536;2023-05-07T02:21:26;21.45;;;18.90;;
61015;SDS011;46902;52.920;6.536;2023-05-07T02:23:52;24.90;;;18.30;;
61015;SDS011;46902;52.920;6.536;2023-05-07T02:26:17;21.17;;;18.10;;
61015;SDS011;46902;52.920;6.536;2023-05-07T02:28:43;23.90;;;19.50;;
61015;SDS011;46902;52.920;6.536;2023-05-07T02:31:09;25.02;;;19.58;;
61015;SDS011;46902;52.920;6.536;2023-05-07T02:33:34;24.30;;;20.75;;
61015;SDS011;46902;52.920;6.536;2023-05-07T02:36:08;22.38;;;19.85;;
61015;SDS011;46902;52.920;6.536;2023-05-07T02:41:00;24.52;;;20.52;;
61015;SDS011;46902;52.920;6.536;2023-05-07T02:43:25;24.75;;;20.38;;
61015;SDS011;46902;52.920;6.536;2023-05-07T02:46:03;27.92;;;21.40;;
61015;SDS011;46902;52.920;6.536;2023-05-07T02:48:30;29.65;;;21.10;;
61015;SDS011;46902;52.920;6.536;2023-05-07T02:50:56;27.42;;;21.20;;
61015;SDS011;46902;52.920;6.536;2023-05-07T02:53:22;25.88;;;22.05;;
61015;SDS011;46902;52.920;6.536;2023-05-07T02:55:51;29.20;;;21.83;;
61015;SDS011;46902;52.920;6.536;2023-05-07T02:58:17;26.90;;;21.67;;
61015;SDS011;46902;52.920;6.536;2023-05-07T03:00:43;28.63;;;22.17;;
61015;SDS011;46902;52.920;6.536;2023-05-07T03:03:09;26.65;;;22.75;;
61015;SDS011;46902;52.920;6.536;2023-05-07T03:05:35;28.48;;;23.45;;
61015;SDS011;46902;52.920;6.536;2023-05-07T03:08:01;30.50;;;24.05;;
61015;SDS011;46902;52.920;6.536;2023-05-07T03:10:27;29.67;;;23.85;;
61015;SDS011;46902;52.920;6.536;2023-05-07T03:12:53;29.08;;;23.95;;
61015;SDS011;46902;52.920;6.536;2023-05-07T03:15:19;30.27;;;23.63;;
61015;SDS011;46902;52.920;6.536;2023-05-07T03:17:44;33.88;;;25.52;;
61015;SDS011;46902;52.920;6.536;2023-05-07T03:20:10;29.58;;;24.67;;
61015;SDS011;46902;52.920;6.536;2023-05-07T03:22:36;29.05;;;24.80;;
61015;SDS011;46902;52.920;6.536;2023-05-07T03:25:02;28.65;;;25.58;;
61015;SDS011;46902;52.920;6.536;2023-05-07T03:27:27;32.33;;;25.50;;
61015;SDS011;46902;52.920;6.536;2023-05-07T03:29:53;27.75;;;24.20;;
61015;SDS011;46902;52.920;6.536;2023-05-07T03:32:18;30.92;;;25.88;;
61015;SDS011;46902;52.920;6.536;2023-05-07T03:34:44;34.50;;;27.23;;
61015;SDS011;46902;52.920;6.536;2023-05-07T03:37:10;33.35;;;26.98;;
61015;SDS011;46902;52.920;6.536;2023-05-07T03:39:35;33.85;;;27.13;;
61015;SDS011;46902;52.920;6.536;2023-05-07T03:42:01;36.83;;;27.58;;
61015;SDS011;46902;52.920;6.536;2023-05-07T03:44:27;37.08;;;26.90;;
61015;SDS011;46902;52.920;6.536;2023-05-07T03:46:53;35.05;;;26.58;;
61015;SDS011;46902;52.920;6.536;2023-05-07T03:49:18;33.42;;;27.10;;
61015;SDS011;46902;52.920;6.536;2023-05-07T03:51:44;35.92;;;27.48;;
61015;SDS011;46902;52.920;6.536;2023-05-07T03:54:10;36.13;;;29.42;;
61015;SDS011;46902;52.920;6.536;2023-05-07T03:56:35;32.95;;;27.73;;
61015;SDS011;46902;52.920;6.536;2023-05-07T03:59:02;40.38;;;28.80;;
61015;SDS011;46902;52.920;6.536;2023-05-07T04:01:27;35.70;;;28.42;;
61015;SDS011;46902;52.920;6.536;2023-05-07T04:03:53;33.75;;;27.35;;
61015;SDS011;46902;52.920;6.536;2023-05-07T04:06:19;36.97;;;29.63;;
61015;SDS011;46902;52.920;6.536;2023-05-07T04:08:44;38.25;;;28.45;;
61015;SDS011;46902;52.920;6.536;2023-05-07T04:11:10;35.97;;;28.48;;
61015;SDS011;46902;52.920;6.536;2023-05-07T04:13:36;33.38;;;27.80;;
61015;SDS011;46902;52.920;6.536;2023-05-07T04:16:02;36.35;;;29.25;;
61015;SDS011;46902;52.920;6.536;2023-05-07T04:18:28;39.17;;;29.25;;
61015;SDS011;46902;52.920;6.536;2023-05-07T04:20:54;34.75;;;27.17;;
61015;SDS011;46902;52.920;6.536;2023-05-07T04:23:20;34.38;;;26.98;;
61015;SDS011;46902;52.920;6.536;2023-05-07T04:25:45;36.42;;;28.90;;
61015;SDS011;46902;52.920;6.536;2023-05-07T04:28:11;36.30;;;28.33;;
61015;SDS011;46902;52.920;6.536;2023-05-07T04:30:37;36.85;;;27.70;;
61015;SDS011;46902;52.920;6.536;2023-05-07T04:33:03;31.75;;;26.63;;
61015;SDS011;46902;52.920;6.536;2023-05-07T04:35:29;34.08;;;26.67;;
61015;SDS011;46902;52.920;6.536;2023-05-07T04:37:54;30.30;;;25.73;;
61015;SDS011;46902;52.920;6.536;2023-05-07T04:40:20;32.40;;;26.35;;
61015;SDS011;46902;52.920;6.536;2023-05-07T04:42:46;31.33;;;25.58;;
61015;SDS011;46902;52.920;6.536;2023-05-07T04:45:11;33.35;;;25.40;;
61015;SDS011;46902;52.920;6.536;2023-05-07T04:47:37;32.28;;;24.90;;
61015;SDS011;46902;52.920;6.536;2023-05-07T04:50:03;32.55;;;25.20;;
61015;SDS011;46902;52.920;6.536;2023-05-07T04:52:30;31.58;;;25.55;;
61015;SDS011;46902;52.920;6.536;2023-05-07T04:54:56;30.77;;;25.17;;
61015;SDS011;46902;52.920;6.536;2023-05-07T04:57:23;27.75;;;23.98;;
61015;SDS011;46902;52.920;6.536;2023-05-07T04:59:49;26.80;;;23.45;;
61015;SDS011;46902;52.920;6.536;2023-05-07T05:02:15;29.25;;;23.48;;
61015;SDS011;46902;52.920;6.536;2023-05-07T05:04:40;29.33;;;25.02;;
61015;SDS011;46902;52.920;6.536;2023-05-07T05:07:06;27.15;;;22.90;;
61015;SDS011;46902;52.920;6.536;2023-05-07T05:09:32;26.80;;;22.75;;
61015;SDS011;46902;52.920;6.536;2023-05-07T05:11:58;27.65;;;22.88;;
61015;SDS011;46902;52.920;6.536;2023-05-07T05:14:24;26.48;;;22.75;;
61015;SDS011;46902;52.920;6.536;2023-05-07T05:16:50;24.15;;;21.20;;
61015;SDS011;46902;52.920;6.536;2023-05-07T05:19:15;28.10;;;23.52;;
61015;SDS011;46902;52.920;6.536;2023-05-07T05:21:41;26.33;;;21.98;;
61015;SDS011;46902;52.920;6.536;2023-05-07T05:24:07;28.73;;;22.63;;
61015;SDS011;46902;52.920;6.536;2023-05-07T05:26:32;28.80;;;23.80;;
61015;SDS011;46902;52.920;6.536;2023-05-07T05:28:58;26.48;;;22.02;;
61015;SDS011;46902;52.920;6.536;2023-05-07T05:31:24;26.75;;;22.75;;
61015;SDS011;46902;52.920;6.536;2023-05-07T05:33:49;24.40;;;20.75;;
61015;SDS011;46902;52.920;6.536;2023-05-07T05:36:15;26.63;;;21.20;;
61015;SDS011;46902;52.920;6.536;2023-05-07T05:38:41;22.73;;;20.30;;
61015;SDS011;46902;52.920;6.536;2023-05-07T05:41:07;27.10;;;21.30;;
61015;SDS011;46902;52.920;6.536;2023-05-07T05:43:32;24.90;;;21.95;;
61015;SDS011;46902;52.920;6.536;2023-05-07T05:45:58;23.63;;;20.10;;
61015;SDS011;46902;52.920;6.536;2023-05-07T05:48:24;25.20;;;20.77;;
61015;SDS011;46902;52.920;6.536;2023-05-07T05:50:49;24.27;;;21.08;;
61015;SDS011;46902;52.920;6.536;2023-05-07T05:53:15;27.45;;;21.48;;
61015;SDS011;46902;52.920;6.536;2023-05-07T05:55:41;26.10;;;21.15;;
61015;SDS011;46902;52.920;6.536;2023-05-07T05:58:07;25.40;;;21.70;;
61015;SDS011;46902;52.920;6.536;2023-05-07T06:00:33;24.08;;;19.98;;
61015;SDS011;46902;52.920;6.536;2023-05-07T06:02:59;28.58;;;21.13;;
61015;SDS011;46902;52.920;6.536;2023-05-07T06:05:25;26.45;;;21.58;;
61015;SDS011;46902;52.920;6.536;2023-05-07T06:07:50;24.65;;;21.52;;
61015;SDS011;46902;52.920;6.536;2023-05-07T06:10:16;24.48;;;21.83;;
61015;SDS011;46902;52.920;6.536;2023-05-07T06:12:42;25.45;;;21.70;;
61015;SDS011;46902;52.920;6.536;2023-05-07T06:15:07;24.58;;;20.63;;
61015;SDS011;46902;52.920;6.536;2023-05-07T06:17:33;27.08;;;21.95;;
61015;SDS011;46902;52.920;6.536;2023-05-07T06:19:59;26.25;;;20.83;;
61015;SDS011;46902;52.920;6.536;2023-05-07T06:22:25;24.08;;;21.55;;
61015;SDS011;46902;52.920;6.536;2023-05-07T06:24:50;27.98;;;21.90;;
61015;SDS011;46902;52.920;6.536;2023-05-07T06:27:16;24.33;;;20.73;;
61015;SDS011;46902;52.920;6.536;2023-05-07T06:29:42;24.55;;;21.30;;
61015;SDS011;46902;52.920;6.536;2023-05-07T06:32:08;24.55;;;21.23;;
61015;SDS011;46902;52.920;6.536;2023-05-07T06:34:33;24.75;;;20.88;;
61015;SDS011;46902;52.920;6.536;2023-05-07T06:36:59;26.70;;;22.20;;
61015;SDS011;46902;52.920;6.536;2023-05-07T06:39:24;25.67;;;22.05;;
61015;SDS011;46902;52.920;6.536;2023-05-07T06:41:50;24.67;;;20.67;;
61015;SDS011;46902;52.920;6.536;2023-05-07T06:44:15;25.77;;;21.15;;
61015;SDS011;46902;52.920;6.536;2023-05-07T06:46:41;25.52;;;22.48;;
61015;SDS011;46902;52.920;6.536;2023-05-07T06:49:07;28.30;;;22.02;;
61015;SDS011;46902;52.920;6.536;2023-05-07T06:51:32;24.10;;;21.48;;
61015;SDS011;46902;52.920;6.536;2023-05-07T06:53:58;27.92;;;22.52;;
61015;SDS011;46902;52.920;6.536;2023-05-07T06:56:24;26.98;;;22.83;;
61015;SDS011;46902;52.920;6.536;2023-05-07T06:58:50;27.08;;;22.23;;
61015;SDS011;46902;52.920;6.536;2023-05-07T07:01:15;28.58;;;21.42;;
61015;SDS011;46902;52.920;6.536;2023-05-07T07:03:41;25.00;;;22.25;;
61015;SDS011;46902;52.920;6.536;2023-05-07T07:06:07;25.90;;;21.42;;
61015;SDS011;46902;52.920;6.536;2023-05-07T07:08:32;25.70;;;22.75;;
61015;SDS011;46902;52.920;6.536;2023-05-07T07:10:58;25.67;;;22.48;;
61015;SDS011;46902;52.920;6.536;2023-05-07T07:13:24;24.95;;;22.30;;
61015;SDS011;46902;52.920;6.536;2023-05-07T07:15:49;29.92;;;23.92;;
61015;SDS011;46902;52.920;6.536;2023-05-07T07:18:15;26.23;;;22.10;;
61015;SDS011;46902;52.920;6.536;2023-05-07T07:20:40;27.75;;;23.27;;
61015;SDS011;46902;52.920;6.536;2023-05-07T07:23:06;27.58;;;23.38;;
61015;SDS011;46902;52.920;6.536;2023-05-07T07:25:32;24.95;;;21.95;;
61015;SDS011;46902;52.920;6.536;2023-05-07T07:27:57;28.92;;;22.17;;
61015;SDS011;46902;52.920;6.536;2023-05-07T07:30:23;24.42;;;21.85;;
61015;SDS011;46902;52.920;6.536;2023-05-07T07:32:48;26.98;;;22.92;;
61015;SDS011;46902;52.920;6.536;2023-05-07T07:35:14;29.50;;;23.42;;
61015;SDS011;46902;52.920;6.536;2023-05-07T07:37:40;27.40;;;22.13;;
61015;SDS011;46902;52.920;6.536;2023-05-07T07:40:06;26.08;;;23.00;;
61015;SDS011;46902;52.920;6.536;2023-05-07T07:42:32;27.05;;;22.45;;
61015;SDS011;46902;52.920;6.536;2023-05-07T07:44:57;25.38;;;22.20;;
61015;SDS011;46902;52.920;6.536;2023-05-07T07:47:23;26.50;;;22.52;;
61015;SDS011;46902;52.920;6.536;2023-05-07T07:49:48;26.02;;;22.77;;
61015;SDS011;46902;52.920;6.536;2023-05-07T07:52:14;25.15;;;22.48;;
61015;SDS011;46902;52.920;6.536;2023-05-07T07:54:40;27.13;;;22.70;;
61015;SDS011;46902;52.920;6.536;2023-05-07T07:57:06;25.23;;;21.77;;
61015;SDS011;46902;52.920;6.536;2023-05-07T07:59:31;25.40;;;21.58;;
61015;SDS011;46902;52.920;6.536;2023-05-07T08:01:57;25.45;;;21.80;;
61015;SDS011;46902;52.920;6.536;2023-05-07T08:04:22;26.15;;;22.13;;
61015;SDS011;46902;52.920;6.536;2023-05-07T08:06:48;26.67;;;23.17;;
61015;SDS011;46902;52.920;6.536;2023-05-07T08:09:14;26.65;;;22.60;;
61015;SDS011;46902;52.920;6.536;2023-05-07T08:11:39;26.08;;;21.85;;
61015;SDS011;46902;52.920;6.536;2023-05-07T08:14:05;26.35;;;22.55;;
61015;SDS011;46902;52.920;6.536;2023-05-07T08:16:31;26.67;;;22.17;;
61015;SDS011;46902;52.920;6.536;2023-05-07T08:18:56;25.38;;;22.63;;
61015;SDS011;46902;52.920;6.536;2023-05-07T08:21:22;25.20;;;22.40;;
61015;SDS011;46902;52.920;6.536;2023-05-07T08:23:48;25.85;;;22.70;;
61015;SDS011;46902;52.920;6.536;2023-05-07T08:26:14;24.38;;;21.67;;
61015;SDS011;46902;52.920;6.536;2023-05-07T08:28:39;27.15;;;22.67;;
61015;SDS011;46902;52.920;6.536;2023-05-07T08:31:05;28.38;;;22.73;;
61015;SDS011;46902;52.920;6.536;2023-05-07T08:33:31;27.98;;;22.23;;
61015;SDS011;46902;52.920;6.536;2023-05-07T08:35:56;25.95;;;22.25;;
61015;SDS011;46902;52.920;6.536;2023-05-07T08:38:22;27.83;;;23.38;;
61015;SDS011;46902;52.920;6.536;2023-05-07T08:40:47;28.95;;;23.58;;
61015;SDS011;46902;52.920;6.536;2023-05-07T08:43:13;26.02;;;23.25;;
61015;SDS011;46902;52.920;6.536;2023-05-07T08:45:40;27.15;;;22.63;;
61015;SDS011;46902;52.920;6.536;2023-05-07T08:48:15;29.83;;;23.58;;
61015;SDS011;46902;52.920;6.536;2023-05-07T08:50:41;27.65;;;23.45;;
61015;SDS011;46902;52.920;6.536;2023-05-07T08:53:07;26.13;;;22.00;;
61015;SDS011;46902;52.920;6.536;2023-05-07T08:55:33;24.60;;;21.92;;
61015;SDS011;46902;52.920;6.536;2023-05-07T08:57:59;27.08;;;22.38;;
61015;SDS011;46902;52.920;6.536;2023-05-07T09:00:25;25.63;;;22.80;;
61015;SDS011;46902;52.920;6.536;2023-05-07T09:02:51;26.95;;;22.50;;
61015;SDS011;46902;52.920;6.536;2023-05-07T09:05:18;25.10;;;22.40;;
61015;SDS011;46902;52.920;6.536;2023-05-07T09:07:44;25.88;;;21.65;;
61015;SDS011;46902;52.920;6.536;2023-05-07T09:10:10;27.50;;;22.88;;
61015;SDS011;46902;52.920;6.536;2023-05-07T09:12:36;25.42;;;22.73;;
61015;SDS011;46902;52.920;6.536;2023-05-07T09:15:03;23.88;;;20.85;;
61015;SDS011;46902;52.920;6.536;2023-05-07T09:17:29;24.23;;;21.73;;
61015;SDS011;46902;52.920;6.536;2023-05-07T09:19:54;22.27;;;19.55;;
61015;SDS011;46902;52.920;6.536;2023-05-07T09:22:20;24.25;;;21.13;;
61015;SDS011;46902;52.920;6.536;2023-05-07T09:24:49;22.92;;;20.42;;
61015;SDS011;46902;52.920;6.536;2023-05-07T09:27:15;25.17;;;21.08;;
61015;SDS011;46902;52.920;6.536;2023-05-07T09:29:42;23.77;;;20.77;;
61015;SDS011;46902;52.920;6.536;2023-05-07T09:32:09;24.05;;;20.50;;
61015;SDS011;46902;52.920;6.536;2023-05-07T09:34:35;26.05;;;20.65;;
61015;SDS011;46902;52.920;6.536;2023-05-07T09:37:02;22.75;;;19.55;;
61015;SDS011;46902;52.920;6.536;2023-05-07T09:39:38;21.98;;;19.63;;
61015;SDS011;46902;52.920;6.536;2023-05-07T09:42:07;21.88;;;19.38;;
61015;SDS011;46902;52.920;6.536;2023-05-07T09:44:34;23.45;;;18.70;;
61015;SDS011;46902;52.920;6.536;2023-05-07T09:47:00;20.35;;;18.15;;
61015;SDS011;46902;52.920;6.536;2023-05-07T09:49:29;21.73;;;19.25;;
61015;SDS011;46902;52.920;6.536;2023-05-07T09:51:55;22.35;;;18.40;;
61015;SDS011;46902;52.920;6.536;2023-05-07T09:54:22;21.13;;;18.85;;
61015;SDS011;46902;52.920;6.536;2023-05-07T09:56:48;22.70;;;19.27;;
61015;SDS011;46902;52.920;6.536;2023-05-07T09:59:14;21.48;;;17.45;;
61015;SDS011;46902;52.920;6.536;2023-05-07T10:01:41;19.80;;;17.33;;
61015;SDS011;46902;52.920;6.536;2023-05-07T10:04:08;19.50;;;17.20;;
61015;SDS011;46902;52.920;6.536;2023-05-07T10:06:35;19.10;;;17.02;;
61015;SDS011;46902;52.920;6.536;2023-05-07T10:09:02;19.70;;;17.60;;
61015;SDS011;46902;52.920;6.536;2023-05-07T10:11:30;19.48;;;16.98;;
61015;SDS011;46902;52.920;6.536;2023-05-07T10:14:03;18.50;;;15.55;;
61015;SDS011;46902;52.920;6.536;2023-05-07T10:16:33;22.48;;;16.40;;
61015;SDS011;46902;52.920;6.536;2023-05-07T10:19:04;18.85;;;15.98;;
61015;SDS011;46902;52.920;6.536;2023-05-07T10:21:31;19.02;;;17.00;;
61015;SDS011;46902;52.920;6.536;2023-05-07T10:24:05;18.02;;;15.57;;
61015;SDS011;46902;52.920;6.536;2023-05-07T10:26:39;17.83;;;16.00;;
61015;SDS011;46902;52.920;6.536;2023-05-07T10:29:25;19.20;;;17.20;;
61015;SDS011;46902;52.920;6.536;2023-05-07T10:32:30;16.90;;;15.20;;
61015;SDS011;46902;52.920;6.536;2023-05-07T10:35:04;17.40;;;14.52;;
61015;SDS011;46902;52.920;6.536;2023-05-07T10:37:35;17.83;;;15.93;;
61015;SDS011;46902;52.920;6.536;2023-05-07T10:40:02;16.73;;;14.95;;
61015;SDS011;46902;52.920;6.536;2023-05-07T10:42:28;16.85;;;15.05;;
61015;SDS011;46902;52.920;6.536;2023-05-07T10:44:53;16.88;;;14.30;;
61015;SDS011;46902;52.920;6.536;2023-05-07T10:47:19;15.95;;;14.00;;
61015;SDS011;46902;52.920;6.536;2023-05-07T10:52:11;16.98;;;14.10;;
61015;SDS011;46902;52.920;6.536;2023-05-07T10:54:37;15.55;;;13.95;;
61015;SDS011;46902;52.920;6.536;2023-05-07T10:59:57;15.27;;;13.68;;
61015;SDS011;46902;52.920;6.536;2023-05-07T11:02:23;14.52;;;13.02;;
61015;SDS011;46902;52.920;6.536;2023-05-07T11:05:18;14.55;;;13.18;;
61015;SDS011;46902;52.920;6.536;2023-05-07T11:07:56;15.85;;;13.35;;
61015;SDS011;46902;52.920;6.536;2023-05-07T11:10:23;14.20;;;12.70;;
61015;SDS011;46902;52.920;6.536;2023-05-07T11:13:12;15.50;;;13.77;;
61015;SDS011;46902;52.920;6.536;2023-05-07T11:15:46;14.77;;;12.43;;
61015;SDS011;46902;52.920;6.536;2023-05-07T11:18:16;13.68;;;12.27;;
61015;SDS011;46902;52.920;6.536;2023-05-07T11:20:46;12.30;;;11.00;;
61015;SDS011;46902;52.920;6.536;2023-05-07T11:23:55;14.27;;;12.68;;
61015;SDS011;46902;52.920;6.536;2023-05-07T11:26:06;14.05;;;12.00;;
61015;SDS011;46902;52.920;6.536;2023-05-07T11:28:39;13.52;;;12.02;;
61015;SDS011;46902;52.920;6.536;2023-05-07T11:31:06;13.90;;;11.68;;
61015;SDS011;46902;52.920;6.536;2023-05-07T11:33:33;13.00;;;11.63;;
61015;SDS011;46902;52.920;6.536;2023-05-07T11:35:59;15.70;;;13.02;;
61015;SDS011;46902;52.920;6.536;2023-05-07T11:38:28;14.45;;;12.98;;
61015;SDS011;46902;52.920;6.536;2023-05-07T11:40:55;14.70;;;13.15;;
61015;SDS011;46902;52.920;6.536;2023-05-07T11:43:23;14.48;;;13.07;;
61015;SDS011;46902;52.920;6.536;2023-05-07T11:45:49;14.88;;;13.25;;
61015;SDS011;46902;52.920;6.536;2023-05-07T11:48:15;16.73;;;13.38;;
61015;SDS011;46902;52.920;6.536;2023-05-07T11:50:59;14.75;;;13.18;;
61015;SDS011;46902;52.920;6.536;2023-05-07T11:53:36;14.38;;;12.98;;
61015;SDS011;46902;52.920;6.536;2023-05-07T11:56:09;13.88;;;12.57;;
61015;SDS011;46902;52.920;6.536;2023-05-07T11:58:36;14.77;;;13.32;;
61015;SDS011;46902;52.920;6.536;2023-05-07T12:01:02;15.20;;;13.70;;
61015;SDS011;46902;52.920;6.536;2023-05-07T12:03:29;15.73;;;12.68;;
61015;SDS011;46902;52.920;6.536;2023-05-07T12:05:54;15.80;;;14.10;;
61015;SDS011;46902;52.920;6.536;2023-05-07T12:08:20;15.00;;;13.52;;
61015;SDS011;46902;52.920;6.536;2023-05-07T12:10:47;15.50;;;13.05;;
61015;SDS011;46902;52.920;6.536;2023-05-07T12:13:15;15.85;;;13.32;;
61015;SDS011;46902;52.920;6.536;2023-05-07T12:15:42;15.60;;;14.00;;
61015;SDS011;46902;52.920;6.536;2023-05-07T12:18:08;15.32;;;13.32;;
61015;SDS011;46902;52.920;6.536;2023-05-07T12:20:35;16.67;;;14.00;;
61015;SDS011;46902;52.920;6.536;2023-05-07T12:23:01;15.15;;;13.63;;
61015;SDS011;46902;52.920;6.536;2023-05-07T12:25:34;14.43;;;13.02;;
61015;SDS011;46902;52.920;6.536;2023-05-07T12:28:01;17.42;;;13.95;;
61015;SDS011;46902;52.920;6.536;2023-05-07T12:30:29;14.98;;;13.48;;
61015;SDS011;46902;52.920;6.536;2023-05-07T12:33:04;15.30;;;13.52;;
61015;SDS011;46902;52.920;6.536;2023-05-07T12:35:31;14.13;;;12.60;;
61015;SDS011;46902;52.920;6.536;2023-05-07T12:38:00;14.98;;;13.23;;
61015;SDS011;46902;52.920;6.536;2023-05-07T12:40:36;14.20;;;12.70;;
61015;SDS011;46902;52.920;6.536;2023-05-07T12:43:02;16.42;;;12.98;;
61015;SDS011;46902;52.920;6.536;2023-05-07T12:45:28;13.45;;;12.07;;
61015;SDS011;46902;52.920;6.536;2023-05-07T12:47:53;13.10;;;11.55;;
61015;SDS011;46902;52.920;6.536;2023-05-07T12:50:19;15.68;;;12.40;;
61015;SDS011;46902;52.920;6.536;2023-05-07T12:52:46;14.13;;;12.73;;
61015;SDS011;46902;52.920;6.536;2023-05-07T12:55:16;12.50;;;11.20;;
61015;SDS011;46902;52.920;6.536;2023-05-07T12:57:42;13.93;;;11.00;;
61015;SDS011;46902;52.920;6.536;2023-05-07T13:00:13;12.13;;;10.98;;
61015;SDS011;46902;52.920;6.536;2023-05-07T13:02:40;11.88;;;10.68;;
61015;SDS011;46902;52.920;6.536;2023-05-07T13:05:09;13.18;;;11.77;;
61015;SDS011;46902;52.920;6.536;2023-05-07T13:07:35;13.20;;;11.35;;
61015;SDS011;46902;52.920;6.536;2023-05-07T13:10:02;12.68;;;11.13;;
61015;SDS011;46902;52.920;6.536;2023-05-07T13:12:28;10.48;;;9.48;;
61015;SDS011;46902;52.920;6.536;2023-05-07T13:14:54;12.18;;;10.52;;
61015;SDS011;46902;52.920;6.536;2023-05-07T13:17:20;13.80;;;11.00;;
61015;SDS011;46902;52.920;6.536;2023-05-07T13:19:45;12.38;;;11.07;;
61015;SDS011;46902;52.920;6.536;2023-05-07T13:22:11;11.60;;;10.38;;
61015;SDS011;46902;52.920;6.536;2023-05-07T13:24:37;12.50;;;10.48;;
61015;SDS011;46902;52.920;6.536;2023-05-07T13:27:03;11.90;;;10.27;;
61015;SDS011;46902;52.920;6.536;2023-05-07T13:29:29;11.20;;;10.00;;
61015;SDS011;46902;52.920;6.536;2023-05-07T13:31:58;11.63;;;10.10;;
61015;SDS011;46902;52.920;6.536;2023-05-07T13:34:24;12.15;;;10.85;;
61015;SDS011;46902;52.920;6.536;2023-05-07T13:36:50;12.23;;;10.52;;
61015;SDS011;46902;52.920;6.536;2023-05-07T13:39:16;11.10;;;10.00;;
61015;SDS011;46902;52.920;6.536;2023-05-07T13:41:42;11.10;;;9.98;;
61015;SDS011;46902;52.920;6.536;2023-05-07T13:44:07;11.00;;;9.90;;
61015;SDS011;46902;52.920;6.536;2023-05-07T13:46:33;11.98;;;10.73;;
61015;SDS011;46902;52.920;6.536;2023-05-07T13:48:58;11.48;;;10.38;;
61015;SDS011;46902;52.920;6.536;2023-05-07T13:51:24;11.05;;;9.95;;
61015;SDS011;46902;52.920;6.536;2023-05-07T13:53:50;11.55;;;10.32;;
61015;SDS011;46902;52.920;6.536;2023-05-07T13:56:17;13.10;;;9.85;;
61015;SDS011;46902;52.920;6.536;2023-05-07T13:58:43;10.82;;;9.73;;
61015;SDS011;46902;52.920;6.536;2023-05-07T14:01:08;13.68;;;9.48;;
61015;SDS011;46902;52.920;6.536;2023-05-07T14:03:34;10.52;;;9.32;;
61015;SDS011;46902;52.920;6.536;2023-05-07T14:06:02;10.70;;;9.60;;
61015;SDS011;46902;52.920;6.536;2023-05-07T14:08:28;12.60;;;10.15;;
61015;SDS011;46902;52.920;6.536;2023-05-07T14:10:54;11.32;;;9.50;;
61015;SDS011;46902;52.920;6.536;2023-05-07T14:13:19;10.38;;;9.35;;
61015;SDS011;46902;52.920;6.536;2023-05-07T14:15:45;11.05;;;9.95;;
61015;SDS011;46902;52.920;6.536;2023-05-07T14:18:15;11.35;;;9.07;;
61015;SDS011;46902;52.920;6.536;2023-05-07T14:20:41;10.98;;;9.85;;
61015;SDS011;46902;52.920;6.536;2023-05-07T14:23:11;10.98;;;9.70;;
61015;SDS011;46902;52.920;6.536;2023-05-07T14:25:37;10.88;;;9.02;;
61015;SDS011;46902;52.920;6.536;2023-05-07T14:28:02;11.85;;;9.52;;
61015;SDS011;46902;52.920;6.536;2023-05-07T14:30:28;11.63;;;9.05;;